Date,TemperatureHighF,TemperatureAvgF,TemperatureLowF,DewpointHighF,DewpointAvgF,DewpointLowF,HumidityHigh,HumidityAvg,HumidityLow,PressureMaxIn,PressureMinIn,WindSpeedMaxMPH,WindSpeedAvgMPH,GustSpeedMaxMPH,PrecipitationSumIn
2013-3-1,42.0,32.7,29.0,36.0,29.0,25.0,93,86,76,0.00,40.00,13,6,15,0.00
2013-3-2,45.0,35.0,28.0,36.0,30.8,26.0,95,85,67,0.00,40.00,15,8,17,0.00
2013-3-3,45.0,38.0,28.0,38.0,29.6,17.0,90,72,50,0.00,40.00,28,15,42,0.00
2013-3-4,34.0,29.1,24.0,23.0,17.7,12.0,80,63,41,0.00,40.00,11,6,14,0.00
2013-3-5,40.0,30.3,21.0,27.0,20.7,14.0,84,67,51,0.00,40.00,17,11,19,0.00
2013-3-6,51.0,35.4,29.0,35.0,27.5,22.0,92,73,49,0.00,40.00,28,12,35,0.00
2013-3-7,41.0,34.3,29.0,29.0,25.8,23.0,86,71,51,0.00,40.00,15,8,19,0.00
2013-3-8,42.0,34.5,30.0,35.0,30.6,27.0,94,85,71,0.00,40.00,13,8,15,0.00
2013-3-9,45.0,34.8,25.0,27.0,24.3,21.0,91,68,39,0.00,40.00,19,7,23,0.00
2013-3-10,47.0,36.6,27.0,30.0,24.5,19.0,85,63,39,0.00,40.00,17,10,24,0.00
2013-3-11,53.0,42.4,33.0,35.0,28.1,21.0,71,57,44,0.00,40.00,25,14,32,0.00
2013-3-12,54.0,40.5,30.0,38.0,31.8,27.0,89,72,46,0.00,40.00,14,8,19,0.00
2013-3-13,61.0,43.0,28.0,40.0,33.2,26.0,91,71,36,0.00,40.00,17,7,22,0.00
2013-3-14,63.0,44.2,29.0,43.0,34.5,27.0,92,71,40,0.00,40.00,12,6,14,0.00
2013-3-15,62.0,49.7,36.0,36.0,31.2,26.0,78,51,26,0.00,40.00,20,13,29,0.00
2013-3-16,56.0,44.5,33.0,36.0,27.2,20.0,80,53,25,0.00,40.00,23,12,29,0.00
2013-3-17,44.0,37.2,30.0,36.0,16.2,4.0,84,46,21,0.00,40.00,36,24,48,0.00
2013-3-18,44.0,33.8,22.0,17.0,14.5,9.0,73,46,29,0.00,40.00,35,17,46,0.00
2013-3-19,49.0,35.1,18.0,22.0,14.9,4.0,82,48,15,0.00,40.00,19,6,26,0.00
2013-3-20,50.0,39.2,29.0,44.0,32.3,16.0,94,76,55,0.00,40.00,30,10,40,0.00
2013-3-21,43.0,34.2,28.0,38.0,22.4,13.0,85,63,40,0.00,40.00,35,22,43,0.00
2013-3-22,30.0,26.1,24.0,24.0,20.0,16.0,90,77,62,0.00,40.00,18,9,24,0.00
2013-3-23,34.0,25.3,16.0,24.0,18.5,9.0,92,77,35,0.00,40.00,14,8,18,0.00
2013-3-24,35.0,26.5,18.0,21.0,16.2,6.0,91,68,29,0.00,40.00,11,6,14,0.00
2013-3-25,44.0,30.3,16.0,27.0,17.5,12.0,87,62,34,0.00,40.00,11,7,14,0.00
2013-3-26,44.0,36.1,30.0,34.0,27.5,22.0,88,71,53,0.00,40.00,16,8,21,0.00
2013-3-27,57.0,41.0,30.0,36.0,32.0,28.0,93,73,40,0.00,40.00,11,6,17,0.00
2013-3-28,62.0,45.4,29.0,37.0,31.8,26.0,91,64,28,0.00,40.00,19,8,23,0.00
2013-3-29,63.0,51.4,39.0,37.0,33.5,29.0,77,53,28,0.00,40.00,19,12,30,0.00
2013-3-30,60.0,47.0,28.0,35.0,28.9,-99.9,87,54,28,0.00,40.00,14,7,19,0.00
2013-3-31,67.0,45.3,25.0,32.0,24.9,17.0,86,52,15,0.00,40.00,12,6,17,0.00